sensor_id;sensor_type;location;lat;lon;timestamp;P1;durP1;ratioP1;P2;durP2;ratioP2
14066;SDS011;7108;42.684;23.350;2023-07-02T00:00:55;273.60;;;119.53;;
14066;SDS011;7108;42.684;23.350;2023-07-02T00:03:20;275.03;;;123.37;;
14066;SDS011;7108;42.684;23.350;2023-07-02T00:05:47;271.60;;;118.87;;
14066;SDS011;7108;42.684;23.350;2023-07-02T00:08:15;265.27;;;120.90;;
14066;SDS011;7108;42.684;23.350;2023-07-02T00:10:41;273.03;;;122.50;;
14066;SDS011;7108;42.684;23.350;2023-07-02T00:13:06;249.60;;;117.63;;
14066;SDS011;7108;42.684;23.350;2023-07-02T00:15:32;269.73;;;123.43;;
14066;SDS011;7108;42.684;23.350;2023-07-02T00:17:57;277.53;;;122.70;;
14066;SDS011;7108;42.684;23.350;2023-07-02T00:20:23;264.60;;;120.23;;
14066;SDS011;7108;42.684;23.350;2023-07-02T00:22:48;274.40;;;118.60;;
14066;SDS011;7108;42.684;23.350;2023-07-02T00:25:14;252.30;;;120.27;;
14066;SDS011;7108;42.684;23.350;2023-07-02T00:27:40;245.60;;;117.43;;
14066;SDS011;7108;42.684;23.350;2023-07-02T00:30:05;260.17;;;120.03;;
14066;SDS011;7108;42.684;23.350;2023-07-02T00:32:31;266.67;;;121.63;;
14066;SDS011;7108;42.684;23.350;2023-07-02T00:34:57;265.90;;;116.90;;
14066;SDS011;7108;42.684;23.350;2023-07-02T00:37:23;265.73;;;120.20;;
14066;SDS011;7108;42.684;23.350;2023-07-02T00:39:49;276.63;;;122.57;;
14066;SDS011;7108;42.684;23.350;2023-07-02T00:42:14;248.77;;;117.07;;
14066;SDS011;7108;42.684;23.350;2023-07-02T00:44:41;252.93;;;114.40;;
14066;SDS011;7108;42.684;23.350;2023-07-02T00:47:09;250.37;;;115.97;;
14066;SDS011;7108;42.684;23.350;2023-07-02T00:49:36;262.43;;;117.53;;
14066;SDS011;7108;42.684;23.350;2023-07-02T00:52:02;283.20;;;122.13;;
14066;SDS011;7108;42.684;23.350;2023-07-02T00:54:28;261.37;;;116.03;;
14066;SDS011;7108;42.684;23.350;2023-07-02T00:56:54;273.73;;;119.60;;
14066;SDS011;7108;42.684;23.350;2023-07-02T00:59:20;253.63;;;115.93;;
14066;SDS011;7108;42.684;23.350;2023-07-02T01:01:45;272.57;;;118.03;;
14066;SDS011;7108;42.684;23.350;2023-07-02T01:04:16;252.57;;;115.90;;
14066;SDS011;7108;42.684;23.350;2023-07-02T01:06:43;267.60;;;118.80;;
14066;SDS011;7108;42.684;23.350;2023-07-02T01:09:10;251.67;;;115.83;;
14066;SDS011;7108;42.684;23.350;2023-07-02T01:16:59;259.63;;;117.03;;
14066;SDS011;7108;42.684;23.350;2023-07-02T01:22:05;263.97;;;116.90;;
14066;SDS011;7108;42.684;23.350;2023-07-02T01:24:32;264.40;;;116.87;;
14066;SDS011;7108;42.684;23.350;2023-07-02T01:26:57;265.83;;;117.83;;
14066;SDS011;7108;42.684;23.350;2023-07-02T01:29:28;264.37;;;122.70;;
14066;SDS011;7108;42.684;23.350;2023-07-02T01:31:55;269.60;;;120.40;;
14066;SDS011;7108;42.684;23.350;2023-07-02T01:34:21;246.43;;;114.30;;
14066;SDS011;7108;42.684;23.350;2023-07-02T01:36:47;264.53;;;116.33;;
14066;SDS011;7108;42.684;23.350;2023-07-02T01:39:13;248.33;;;111.90;;
14066;SDS011;7108;42.684;23.350;2023-07-02T01:41:49;260.83;;;119.37;;
14066;SDS011;7108;42.684;23.350;2023-07-02T01:44:16;250.57;;;118.40;;
14066;SDS011;7108;42.684;23.350;2023-07-02T01:46:41;247.93;;;119.13;;
14066;SDS011;7108;42.684;23.350;2023-07-02T01:49:07;263.47;;;120.83;;
14066;SDS011;7108;42.684;23.350;2023-07-02T01:51:33;263.17;;;123.37;;
14066;SDS011;7108;42.684;23.350;2023-07-02T01:53:59;269.37;;;121.03;;
14066;SDS011;7108;42.684;23.350;2023-07-02T01:56:25;252.33;;;116.93;;
14066;SDS011;7108;42.684;23.350;2023-07-02T01:58:51;272.03;;;123.77;;
14066;SDS011;7108;42.684;23.350;2023-07-02T02:01:16;268.80;;;121.27;;
14066;SDS011;7108;42.684;23.350;2023-07-02T02:03:42;286.50;;;119.50;;
14066;SDS011;7108;42.684;23.350;2023-07-02T02:06:07;270.20;;;122.13;;
14066;SDS011;7108;42.684;23.350;2023-07-02T02:08:33;262.63;;;117.50;;
14066;SDS011;7108;42.684;23.350;2023-07-02T02:10:59;260.77;;;116.97;;
14066;SDS011;7108;42.684;23.350;2023-07-02T02:13:25;246.43;;;114.90;;
14066;SDS011;7108;42.684;23.350;2023-07-02T02:15:51;265.03;;;119.50;;
14066;SDS011;7108;42.684;23.350;2023-07-02T02:18:16;246.07;;;112.77;;
14066;SDS011;7108;42.684;23.350;2023-07-02T02:20:42;276.20;;;113.43;;
14066;SDS011;7108;42.684;23.350;2023-07-02T02:23:07;260.20;;;116.13;;
14066;SDS011;7108;42.684;23.350;2023-07-02T02:25:33;266.03;;;116.23;;
14066;SDS011;7108;42.684;23.350;2023-07-02T02:27:58;266.10;;;119.47;;
14066;SDS011;7108;42.684;23.350;2023-07-02T02:30:23;243.97;;;109.73;;
14066;SDS011;7108;42.684;23.350;2023-07-02T02:32:49;270.93;;;113.07;;
14066;SDS011;7108;42.684;23.350;2023-07-02T02:35:14;248.33;;;109.17;;
14066;SDS011;7108;42.684;23.350;2023-07-02T02:37:40;275.30;;;115.10;;
14066;SDS011;7108;42.684;23.350;2023-07-02T02:40:06;264.57;;;110.90;;
14066;SDS011;7108;42.684;23.350;2023-07-02T02:42:34;258.87;;;110.87;;
14066;SDS011;7108;42.684;23.350;2023-07-02T02:45:00;270.87;;;120.83;;
14066;SDS011;7108;42.684;23.350;2023-07-02T02:47:25;244.67;;;113.27;;
14066;SDS011;7108;42.684;23.350;2023-07-02T02:49:51;273.33;;;117.03;;
14066;SDS011;7108;42.684;23.350;2023-07-02T02:52:16;253.70;;;116.27;;
14066;SDS011;7108;42.684;23.350;2023-07-02T02:54:43;266.47;;;114.93;;
14066;SDS011;7108;42.684;23.350;2023-07-02T02:57:08;263.10;;;117.33;;
14066;SDS011;7108;42.684;23.350;2023-07-02T02:59:34;263.03;;;116.33;;
14066;SDS011;7108;42.684;23.350;2023-07-02T03:01:59;262.90;;;114.77;;
14066;SDS011;7108;42.684;23.350;2023-07-02T03:04:24;251.27;;;115.20;;
14066;SDS011;7108;42.684;23.350;2023-07-02T03:06:50;262.17;;;121.63;;
14066;SDS011;7108;42.684;23.350;2023-07-02T03:09:17;239.57;;;109.30;;
14066;SDS011;7108;42.684;23.350;2023-07-02T03:11:44;288.13;;;121.67;;
14066;SDS011;7108;42.684;23.350;2023-07-02T03:14:10;270.57;;;119.63;;
14066;SDS011;7108;42.684;23.350;2023-07-02T03:16:35;260.07;;;116.90;;
14066;SDS011;7108;42.684;23.350;2023-07-02T03:19:01;257.60;;;120.17;;
14066;SDS011;7108;42.684;23.350;2023-07-02T03:21:27;249.93;;;115.03;;
14066;SDS011;7108;42.684;23.350;2023-07-02T03:23:54;271.33;;;119.50;;
14066;SDS011;7108;42.684;23.350;2023-07-02T03:26:20;256.87;;;116.93;;
14066;SDS011;7108;42.684;23.350;2023-07-02T03:28:46;280.33;;;122.47;;
14066;SDS011;7108;42.684;23.350;2023-07-02T03:31:12;273.73;;;122.03;;
14066;SDS011;7108;42.684;23.350;2023-07-02T03:33:37;262.67;;;119.53;;
14066;SDS011;7108;42.684;23.350;2023-07-02T03:36:03;259.73;;;113.53;;
14066;SDS011;7108;42.684;23.350;2023-07-02T03:38:28;249.03;;;116.63;;
14066;SDS011;7108;42.684;23.350;2023-07-02T03:40:54;269.93;;;118.77;;
14066;SDS011;7108;42.684;23.350;2023-07-02T03:43:19;250.00;;;114.47;;
14066;SDS011;7108;42.684;23.350;2023-07-02T03:45:44;282.60;;;118.27;;
14066;SDS011;7108;42.684;23.350;2023-07-02T03:48:10;250.13;;;113.80;;
14066;SDS011;7108;42.684;23.350;2023-07-02T03:50:35;261.77;;;118.63;;
14066;SDS011;7108;42.684;23.350;2023-07-02T03:53:01;242.53;;;114.80;;
14066;SDS011;7108;42.684;23.350;2023-07-02T03:55:26;249.10;;;117.37;;
14066;SDS011;7108;42.684;23.350;2023-07-02T03:57:52;269.13;;;121.07;;
14066;SDS011;7108;42.684;23.350;2023-07-02T04:00:17;271.93;;;121.53;;
14066;SDS011;7108;42.684;23.350;2023-07-02T04:02:43;276.20;;;119.27;;
14066;SDS011;7108;42.684;23.350;2023-07-02T04:05:08;267.03;;;120.43;;
14066;SDS011;7108;42.684;23.350;2023-07-02T04:07:34;256.30;;;114.77;;
14066;SDS011;7108;42.684;23.350;2023-07-02T04:09:59;264.23;;;120.40;;
14066;SDS011;7108;42.684;23.350;2023-07-02T04:12:25;254.50;;;119.93;;
14066;SDS011;7108;42.684;23.350;2023-07-02T04:14:51;267.37;;;121.13;;
14066;SDS011;7108;42.684;23.350;2023-07-02T04:17:16;276.00;;;125.10;;
14066;SDS011;7108;42.684;23.350;2023-07-02T04:19:42;290.13;;;125.13;;
14066;SDS011;7108;42.684;23.350;2023-07-02T04:22:07;282.13;;;127.67;;
14066;SDS011;7108;42.684;23.350;2023-07-02T04:24:33;261.60;;;121.33;;
14066;SDS011;7108;42.684;23.350;2023-07-02T04:26:58;278.43;;;127.67;;
14066;SDS011;7108;42.684;23.350;2023-07-02T04:29:24;258.17;;;124.57;;
14066;SDS011;7108;42.684;23.350;2023-07-02T04:31:50;301.47;;;128.53;;
14066;SDS011;7108;42.684;23.350;2023-07-02T04:34:15;264.83;;;123.83;;
14066;SDS011;7108;42.684;23.350;2023-07-02T04:36:41;271.53;;;123.30;;
14066;SDS011;7108;42.684;23.350;2023-07-02T04:39:07;252.53;;;120.03;;
14066;SDS011;7108;42.684;23.350;2023-07-02T04:41:33;248.03;;;120.03;;
14066;SDS011;7108;42.684;23.350;2023-07-02T04:43:59;261.63;;;123.33;;
14066;SDS011;7108;42.684;23.350;2023-07-02T04:46:25;262.53;;;122.43;;
14066;SDS011;7108;42.684;23.350;2023-07-02T04:48:51;284.03;;;118.33;;
14066;SDS011;7108;42.684;23.350;2023-07-02T04:51:16;269.13;;;120.57;;
14066;SDS011;7108;42.684;23.350;2023-07-02T04:53:41;277.83;;;119.40;;
14066;SDS011;7108;42.684;23.350;2023-07-02T04:56:07;257.10;;;119.73;;
14066;SDS011;7108;42.684;23.350;2023-07-02T04:58:32;244.63;;;117.30;;
14066;SDS011;7108;42.684;23.350;2023-07-02T05:00:58;263.67;;;116.87;;
14066;SDS011;7108;42.684;23.350;2023-07-02T05:03:23;268.03;;;122.60;;
14066;SDS011;7108;42.684;23.350;2023-07-02T05:05:49;275.83;;;119.83;;
14066;SDS011;7108;42.684;23.350;2023-07-02T05:08:14;274.93;;;122.43;;
14066;SDS011;7108;42.684;23.350;2023-07-02T05:10:39;264.23;;;121.50;;
14066;SDS011;7108;42.684;23.350;2023-07-02T05:13:05;245.00;;;115.00;;
14066;SDS011;7108;42.684;23.350;2023-07-02T05:15:30;256.23;;;121.33;;
14066;SDS011;7108;42.684;23.350;2023-07-02T05:17:56;289.77;;;127.07;;
14066;SDS011;7108;42.684;23.350;2023-07-02T05:20:21;272.57;;;122.10;;
14066;SDS011;7108;42.684;23.350;2023-07-02T05:22:46;284.83;;;120.63;;
14066;SDS011;7108;42.684;23.350;2023-07-02T05:25:12;265.53;;;118.90;;
14066;SDS011;7108;42.684;23.350;2023-07-02T05:27:37;257.10;;;120.07;;
14066;SDS011;7108;42.684;23.350;2023-07-02T05:30:03;255.10;;;119.47;;
14066;SDS011;7108;42.684;23.350;2023-07-02T05:32:29;251.93;;;121.23;;
14066;SDS011;7108;42.684;23.350;2023-07-02T05:34:54;290.50;;;127.90;;
14066;SDS011;7108;42.684;23.350;2023-07-02T05:37:20;272.73;;;120.80;;
14066;SDS011;7108;42.684;23.350;2023-07-02T05:39:46;300.40;;;126.70;;
14066;SDS011;7108;42.684;23.350;2023-07-02T05:42:12;268.10;;;122.30;;
14066;SDS011;7108;42.684;23.350;2023-07-02T05:44:37;247.27;;;119.77;;
14066;SDS011;7108;42.684;23.350;2023-07-02T05:47:03;246.60;;;118.87;;
14066;SDS011;7108;42.684;23.350;2023-07-02T05:49:28;269.87;;;125.77;;
14066;SDS011;7108;42.684;23.350;2023-07-02T05:51:54;295.10;;;120.50;;
14066;SDS011;7108;42.684;23.350;2023-07-02T05:54:19;267.17;;;117.83;;
14066;SDS011;7108;42.684;23.350;2023-07-02T05:56:45;288.73;;;125.67;;
14066;SDS011;7108;42.684;23.350;2023-07-02T05:59:10;250.70;;;119.63;;
14066;SDS011;7108;42.684;23.350;2023-07-02T06:01:37;255.43;;;120.20;;
14066;SDS011;7108;42.684;23.350;2023-07-02T06:04:03;265.60;;;122.13;;
14066;SDS011;7108;42.684;23.350;2023-07-02T06:06:28;270.40;;;121.40;;
14066;SDS011;7108;42.684;23.350;2023-07-02T06:08:53;282.60;;;125.57;;
14066;SDS011;7108;42.684;23.350;2023-07-02T06:11:19;266.57;;;124.17;;
14066;SDS011;7108;42.684;23.350;2023-07-02T06:13:44;279.37;;;120.33;;
14066;SDS011;7108;42.684;23.350;2023-07-02T06:16:10;260.33;;;119.23;;
14066;SDS011;7108;42.684;23.350;2023-07-02T06:18:35;249.77;;;120.67;;
14066;SDS011;7108;42.684;23.350;2023-07-02T06:21:01;255.17;;;119.93;;
14066;SDS011;7108;42.684;23.350;2023-07-02T06:23:26;262.97;;;120.83;;
14066;SDS011;7108;42.684;23.350;2023-07-02T06:25:51;269.63;;;118.90;;
14066;SDS011;7108;42.684;23.350;2023-07-02T06:28:23;258.50;;;124.07;;
14066;SDS011;7108;42.684;23.350;2023-07-02T06:30:49;299.33;;;119.87;;
14066;SDS011;7108;42.684;23.350;2023-07-02T06:33:14;259.90;;;117.83;;
14066;SDS011;7108;42.684;23.350;2023-07-02T06:35:40;256.93;;;117.47;;
14066;SDS011;7108;42.684;23.350;2023-07-02T06:38:05;251.90;;;111.77;;
14066;SDS011;7108;42.684;23.350;2023-07-02T06:40:31;267.63;;;116.43;;
14066;SDS011;7108;42.684;23.350;2023-07-02T06:42:56;284.20;;;118.07;;
14066;SDS011;7108;42.684;23.350;2023-07-02T06:45:21;266.27;;;117.50;;
14066;SDS011;7108;42.684;23.350;2023-07-02T06:47:47;295.10;;;125.13;;
14066;SDS011;7108;42.684;23.350;2023-07-02T06:50:12;284.87;;;132.87;;
14066;SDS011;7108;42.684;23.350;2023-07-02T06:52:38;260.37;;;124.80;;
14066;SDS011;7108;42.684;23.350;2023-07-02T06:55:03;257.77;;;122.47;;
14066;SDS011;7108;42.684;23.350;2023-07-02T06:57:29;273.93;;;128.40;;
14066;SDS011;7108;42.684;23.350;2023-07-02T06:59:58;296.27;;;128.50;;
14066;SDS011;7108;42.684;23.350;2023-07-02T07:02:24;274.73;;;127.03;;
14066;SDS011;7108;42.684;23.350;2023-07-02T07:04:49;275.93;;;125.07;;
14066;SDS011;7108;42.684;23.350;2023-07-02T07:07:15;260.10;;;121.43;;
14066;SDS011;7108;42.684;23.350;2023-07-02T07:09:40;264.33;;;123.83;;
14066;SDS011;7108;42.684;23.350;2023-07-02T07:12:06;263.70;;;120.10;;
14066;SDS011;7108;42.684;23.350;2023-07-02T07:14:32;273.63;;;121.57;;
14066;SDS011;7108;42.684;23.350;2023-07-02T07:16:57;279.30;;;116.80;;
14066;SDS011;7108;42.684;23.350;2023-07-02T07:19:22;263.50;;;119.70;;
14066;SDS011;7108;42.684;23.350;2023-07-02T07:21:48;277.27;;;114.27;;
14066;SDS011;7108;42.684;23.350;2023-07-02T07:24:13;270.20;;;119.60;;
14066;SDS011;7108;42.684;23.350;2023-07-02T07:26:39;256.80;;;116.87;;
14066;SDS011;7108;42.684;23.350;2023-07-02T07:29:04;260.33;;;114.70;;
14066;SDS011;7108;42.684;23.350;2023-07-02T07:31:29;268.00;;;124.13;;
14066;SDS011;7108;42.684;23.350;2023-07-02T07:33:55;289.77;;;122.07;;
14066;SDS011;7108;42.684;23.350;2023-07-02T07:36:20;264.47;;;119.23;;
14066;SDS011;7108;42.684;23.350;2023-07-02T07:38:46;274.97;;;118.00;;
14066;SDS011;7108;42.684;23.350;2023-07-02T07:41:11;259.30;;;114.23;;
14066;SDS011;7108;42.684;23.350;2023-07-02T07:43:37;279.93;;;123.97;;
14066;SDS011;7108;42.684;23.350;2023-07-02T07:46:02;283.40;;;121.20;;
14066;SDS011;7108;42.684;23.350;2023-07-02T07:48:27;273.60;;;116.40;;
14066;SDS011;7108;42.684;23.350;2023-07-02T07:50:53;263.97;;;116.73;;
14066;SDS011;7108;42.684;23.350;2023-07-02T07:53:18;270.57;;;117.67;;
14066;SDS011;7108;42.684;23.350;2023-07-02T07:55:44;258.23;;;111.30;;
14066;SDS011;7108;42.684;23.350;2023-07-02T07:58:09;271.97;;;118.50;;
14066;SDS011;7108;42.684;23.350;2023-07-02T08:00:35;270.87;;;114.73;;
14066;SDS011;7108;42.684;23.350;2023-07-02T08:03:01;288.90;;;119.13;;
14066;SDS011;7108;42.684;23.350;2023-07-02T08:05:28;275.33;;;123.57;;
14066;SDS011;7108;42.684;23.350;2023-07-02T08:07:54;290.50;;;121.40;;
14066;SDS011;7108;42.684;23.350;2023-07-02T08:10:20;256.40;;;115.63;;
14066;SDS011;7108;42.684;23.350;2023-07-02T08:12:45;262.77;;;117.53;;
14066;SDS011;7108;42.684;23.350;2023-07-02T08:15:12;250.80;;;111.33;;
14066;SDS011;7108;42.684;23.350;2023-07-02T08:17:38;270.23;;;114.43;;
14066;SDS011;7108;42.684;23.350;2023-07-02T08:20:03;283.33;;;117.97;;
14066;SDS011;7108;42.684;23.350;2023-07-02T08:22:30;274.43;;;114.90;;
14066;SDS011;7108;42.684;23.350;2023-07-02T08:24:55;292.33;;;117.17;;
14066;SDS011;7108;42.684;23.350;2023-07-02T08:27:21;252.67;;;114.77;;
14066;SDS011;7108;42.684;23.350;2023-07-02T08:29:46;265.83;;;112.80;;
14066;SDS011;7108;42.684;23.350;2023-07-02T08:32:12;256.87;;;109.97;;
14066;SDS011;7108;42.684;23.350;2023-07-02T08:34:38;265.50;;;114.17;;
14066;SDS011;7108;42.684;23.350;2023-07-02T08:37:04;270.73;;;112.17;;
14066;SDS011;7108;42.684;23.350;2023-07-02T08:39:29;263.63;;;111.83;;
14066;SDS011;7108;42.684;23.350;2023-07-02T08:41:55;278.47;;;116.07;;
14066;SDS011;7108;42.684;23.350;2023-07-02T08:44:21;259.50;;;113.73;;
14066;SDS011;7108;42.684;23.350;2023-07-02T08:46:47;265.90;;;116.97;;
14066;SDS011;7108;42.684;23.350;2023-07-02T08:49:15;282.17;;;120.00;;
14066;SDS011;7108;42.684;23.350;2023-07-02T08:51:43;276.50;;;115.57;;
14066;SDS011;7108;42.684;23.350;2023-07-02T08:54:10;294.93;;;120.00;;
14066;SDS011;7108;42.684;23.350;2023-07-02T08:56:35;287.77;;;121.77;;
14066;SDS011;7108;42.684;23.350;2023-07-02T08:59:01;286.63;;;116.10;;
14066;SDS011;7108;42.684;23.350;2023-07-02T09:01:26;269.83;;;118.37;;
14066;SDS011;7108;42.684;23.350;2023-07-02T09:03:57;289.57;;;120.33;;
14066;SDS011;7108;42.684;23.350;2023-07-02T09:06:24;261.10;;;116.60;;
14066;SDS011;7108;42.684;23.350;2023-07-02T09:08:49;282.03;;;118.87;;
14066;SDS011;7108;42.684;23.350;2023-07-02T09:11:15;257.63;;;114.30;;
14066;SDS011;7108;42.684;23.350;2023-07-02T09:16:32;277.17;;;118.60;;
14066;SDS011;7108;42.684;23.350;2023-07-02T09:21:44;268.67;;;113.53;;
14066;SDS011;7108;42.684;23.350;2023-07-02T09:24:15;306.70;;;121.00;;
14066;SDS011;7108;42.684;23.350;2023-07-02T09:26:45;267.80;;;111.87;;
14066;SDS011;7108;42.684;23.350;2023-07-02T09:29:22;273.70;;;114.80;;
14066;SDS011;7108;42.684;23.350;2023-07-02T09:31:55;290.03;;;120.03;;
14066;SDS011;7108;42.684;23.350;2023-07-02T09:34:29;276.90;;;121.70;;
14066;SDS011;7108;42.684;23.350;2023-07-02T09:36:58;285.53;;;116.93;;
14066;SDS011;7108;42.684;23.350;2023-07-02T09:39:28;301.57;;;133.97;;
14066;SDS011;7108;42.684;23.350;2023-07-02T09:41:55;309.77;;;124.13;;
14066;SDS011;7108;42.684;23.350;2023-07-02T09:44:25;273.57;;;117.80;;
14066;SDS011;7108;42.684;23.350;2023-07-02T09:49:23;268.43;;;116.47;;
14066;SDS011;7108;42.684;23.350;2023-07-02T09:51:50;260.57;;;115.57;;
14066;SDS011;7108;42.684;23.350;2023-07-02T09:54:16;289.20;;;121.87;;
14066;SDS011;7108;42.684;23.350;2023-07-02T09:56:42;281.43;;;121.00;;
14066;SDS011;7108;42.684;23.350;2023-07-02T09:59:11;282.47;;;118.10;;
14066;SDS011;7108;42.684;23.350;2023-07-02T10:01:37;271.63;;;117.73;;
14066;SDS011;7108;42.684;23.350;2023-07-02T10:04:15;308.10;;;125.07;;
14066;SDS011;7108;42.684;23.350;2023-07-02T10:06:53;267.70;;;116.47;;
14066;SDS011;7108;42.684;23.350;2023-07-02T10:09:20;265.67;;;115.70;;
14066;SDS011;7108;42.684;23.350;2023-07-02T10:11:59;282.13;;;120.00;;
14066;SDS011;7108;42.684;23.350;2023-07-02T10:14:24;271.80;;;118.40;;
14066;SDS011;7108;42.684;23.350;2023-07-02T10:19:19;267.13;;;123.03;;
14066;SDS011;7108;42.684;23.350;2023-07-02T10:21:45;271.07;;;120.17;;
14066;SDS011;7108;42.684;23.350;2023-07-02T10:24:15;281.77;;;123.97;;
14066;SDS011;7108;42.684;23.350;2023-07-02T10:26:55;279.50;;;125.40;;
14066;SDS011;7108;42.684;23.350;2023-07-02T10:29:26;276.27;;;124.00;;
14066;SDS011;7108;42.684;23.350;2023-07-02T10:31:56;286.43;;;124.60;;
14066;SDS011;7108;42.684;23.350;2023-07-02T10:34:32;274.70;;;125.87;;
14066;SDS011;7108;42.684;23.350;2023-07-02T10:37:01;287.83;;;127.23;;
14066;SDS011;7108;42.684;23.350;2023-07-02T10:39:31;273.57;;;124.70;;
14066;SDS011;7108;42.684;23.350;2023-07-02T10:42:30;295.73;;;132.30;;
14066;SDS011;7108;42.684;23.350;2023-07-02T10:44:51;319.57;;;134.80;;
14066;SDS011;7108;42.684;23.350;2023-07-02T10:47:18;297.63;;;131.07;;
14066;SDS011;7108;42.684;23.350;2023-07-02T10:49:44;291.60;;;130.33;;
14066;SDS011;7108;42.684;23.350;2023-07-02T10:52:10;285.63;;;130.57;;
14066;SDS011;7108;42.684;23.350;2023-07-02T10:54:42;265.43;;;128.13;;
14066;SDS011;7108;42.684;23.350;2023-07-02T10:57:18;282.23;;;134.20;;
14066;SDS011;7108;42.684;23.350;2023-07-02T10:59:47;278.17;;;130.60;;
14066;SDS011;7108;42.684;23.350;2023-07-02T11:02:13;291.70;;;132.73;;
14066;SDS011;7108;42.684;23.350;2023-07-02T11:04:39;274.23;;;134.87;;
14066;SDS011;7108;42.684;23.350;2023-07-02T11:07:05;276.63;;;135.47;;
14066;SDS011;7108;42.684;23.350;2023-07-02T11:09:30;269.10;;;131.43;;
14066;SDS011;7108;42.684;23.350;2023-07-02T11:11:57;281.53;;;136.80;;
14066;SDS011;7108;42.684;23.350;2023-07-02T11:14:31;270.30;;;138.83;;
14066;SDS011;7108;42.684;23.350;2023-07-02T11:16:58;284.27;;;140.13;;
14066;SDS011;7108;42.684;23.350;2023-07-02T11:19:27;288.07;;;139.90;;
14066;SDS011;7108;42.684;23.350;2023-07-02T11:21:53;279.93;;;139.23;;
14066;SDS011;7108;42.684;23.350;2023-07-02T11:24:26;289.67;;;140.17;;
14066;SDS011;7108;42.684;23.350;2023-07-02T11:26:54;292.90;;;140.43;;
14066;SDS011;7108;42.684;23.350;2023-07-02T11:29:20;278.17;;;137.30;;
14066;SDS011;7108;42.684;23.350;2023-07-02T11:31:45;308.43;;;145.43;;
14066;SDS011;7108;42.684;23.350;2023-07-02T11:34:15;325.97;;;166.80;;
14066;SDS011;7108;42.684;23.350;2023-07-02T11:36:41;281.40;;;138.50;;
14066;SDS011;7108;42.684;23.350;2023-07-02T11:39:07;266.20;;;139.40;;
14066;SDS011;7108;42.684;23.350;2023-07-02T11:41:39;267.13;;;131.17;;
14066;SDS011;7108;42.684;23.350;2023-07-02T11:44:05;277.77;;;131.40;;
14066;SDS011;7108;42.684;23.350;2023-07-02T11:46:31;251.27;;;120.10;;
14066;SDS011;7108;42.684;23.350;2023-07-02T11:48:57;271.53;;;122.23;;
14066;SDS011;7108;42.684;23.350;2023-07-02T11:51:22;297.43;;;131.67;;
14066;SDS011;7108;42.684;23.350;2023-07-02T11:53:48;259.73;;;120.77;;
14066;SDS011;7108;42.684;23.350;2023-07-02T11:56:13;295.60;;;132.53;;
14066;SDS011;7108;42.684;23.350;2023-07-02T11:58:39;274.30;;;122.70;;
14066;SDS011;7108;42.684;23.350;2023-07-02T12:01:05;274.97;;;129.77;;
14066;SDS011;7108;42.684;23.350;2023-07-02T12:03:30;264.43;;;126.47;;
14066;SDS011;7108;42.684;23.350;2023-07-02T12:05:56;292.03;;;129.30;;
14066;SDS011;7108;42.684;23.350;2023-07-02T12:08:22;277.77;;;128.13;;
14066;SDS011;7108;42.684;23.350;2023-07-02T12:10:47;270.33;;;129.20;;
14066;SDS011;7108;42.684;23.350;2023-07-02T12:13:13;301.77;;;129.13;;
14066;SDS011;7108;42.684;23.350;2023-07-02T12:15:38;293.10;;;132.43;;
14066;SDS011;7108;42.684;23.350;2023-07-02T12:18:04;295.40;;;124.50;;
14066;SDS011;7108;42.684;23.350;2023-07-02T12:20:29;285.17;;;129.17;;
14066;SDS011;7108;42.684;23.350;2023-07-02T12:22:55;323.77;;;132.20;;
14066;SDS011;7108;42.684;23.350;2023-07-02T12:25:21;320.37;;;131.93;;
14066;SDS011;7108;42.684;23.350;2023-07-02T12:27:46;295.17;;;126.03;;
14066;SDS011;7108;42.684;23.350;2023-07-02T12:30:12;295.37;;;125.57;;
14066;SDS011;7108;42.684;23.350;2023-07-02T12:32:42;296.63;;;127.13;;
14066;SDS011;7108;42.684;23.350;2023-07-02T12:35:08;285.43;;;120.00;;
14066;SDS011;7108;42.684;23.350;2023-07-02T12:37:34;287.00;;;122.40;;
14066;SDS011;7108;42.684;23.350;2023-07-02T12:39:59;311.00;;;120.10;;
14066;SDS011;7108;42.684;23.350;2023-07-02T12:42:26;282.97;;;118.23;;
14066;SDS011;7108;42.684;23.350;2023-07-02T12:44:51;296.57;;;121.67;;
14066;SDS011;7108;42.684;23.350;2023-07-02T12:47:17;313.73;;;125.60;;
14066;SDS011;7108;42.684;23.350;2023-07-02T12:49:43;284.80;;;125.03;;
14066;SDS011;7108;42.684;23.350;2023-07-02T12:52:08;307.07;;;126.07;;
14066;SDS011;7108;42.684;23.350;2023-07-02T12:54:34;296.57;;;121.37;;
14066;SDS011;7108;42.684;23.350;2023-07-02T12:56:59;308.10;;;127.03;;
14066;SDS011;7108;42.684;23.350;2023-07-02T12:59:24;287.33;;;120.37;;
14066;SDS011;7108;42.684;23.350;2023-07-02T13:01:50;318.23;;;123.60;;
14066;SDS011;7108;42.684;23.350;2023-07-02T13:04:15;306.03;;;122.63;;
14066;SDS011;7108;42.684;23.350;2023-07-02T13:06:41;302.00;;;128.53;;
14066;SDS011;7108;42.684;23.350;2023-07-02T13:09:07;294.13;;;124.07;;
14066;SDS011;7108;42.684;23.350;2023-07-02T13:11:33;309.87;;;126.00;;
14066;SDS011;7108;42.684;23.350;2023-07-02T13:13:58;319.50;;;126.77;;
14066;SDS011;7108;42.684;23.350;2023-07-02T13:16:24;296.27;;;126.80;;
14066;SDS011;7108;42.684;23.350;2023-07-02T13:18:49;322.27;;;142.30;;
14066;SDS011;7108;42.684;23.350;2023-07-02T13:21:15;290.57;;;124.63;;
14066;SDS011;7108;42.684;23.350;2023-07-02T13:23:40;293.50;;;127.77;;
14066;SDS011;7108;42.684;23.350;2023-07-02T13:26:06;297.73;;;127.40;;
14066;SDS011;7108;42.684;23.350;2023-07-02T13:28:31;282.80;;;125.63;;
14066;SDS011;7108;42.684;23.350;2023-07-02T13:30:57;311.10;;;129.47;;
14066;SDS011;7108;42.684;23.350;2023-07-02T13:33:22;290.43;;;125.27;;
14066;SDS011;7108;42.684;23.350;2023-07-02T13:35:48;304.60;;;130.90;;
14066;SDS011;7108;42.684;23.350;2023-07-02T13:38:14;288.37;;;128.47;;
14066;SDS011;7108;42.684;23.350;2023-07-02T13:40:39;295.73;;;127.83;;
14066;SDS011;7108;42.684;23.350;2023-07-02T13:43:05;293.93;;;127.60;;
14066;SDS011;7108;42.684;23.350;2023-07-02T13:45:30;294.47;;;125.47;;
14066;SDS011;7108;42.684;23.350;2023-07-02T13:47:56;309.57;;;125.23;;
14066;SDS011;7108;42.684;23.350;2023-07-02T13:50:21;299.27;;;125.00;;
14066;SDS011;7108;42.684;23.350;2023-07-02T13:52:48;294.90;;;124.37;;
14066;SDS011;7108;42.684;23.350;2023-07-02T13:55:14;289.27;;;122.40;;
14066;SDS011;7108;42.684;23.350;2023-07-02T13:57:40;283.63;;;125.87;;
14066;SDS011;7108;42.684;23.350;2023-07-02T14:00:06;304.97;;;127.60;;
14066;SDS011;7108;42.684;23.350;2023-07-02T14:02:32;313.37;;;130.27;;
14066;SDS011;7108;42.684;23.350;2023-07-02T14:04:58;309.03;;;128.23;;
14066;SDS011;7108;42.684;23.350;2023-07-02T14:07:25;319.40;;;132.83;;
14066;SDS011;7108;42.684;23.350;2023-07-02T14:09:51;328.07;;;129.23;;